Time;durP1;ratioP1;P1;durP2;ratioP2;P2;SDS_P1;SDS_P2;PMS_P1;PMS_P2;Temp;Humidity;BMP_temperature;BMP_pressure;BME280_temperature;BME280_humidity;BME280_pressure;Samples;Min_cycle;Max_cycle;Signal;HPM_P1;HPM_P2
2022/10/25 00:06:44;;;;;;;39.60;13.95;;;;;;;9.55;100.00;100716.34;12908916;22;1486995;-89
2022/10/25 00:11:45;;;;;;;29.42;13.38;;;;;;;10.53;100.00;100900.19;12820545;22;20007;-89
2022/10/25 00:16:49;;;;;;;30.10;14.13;;;;;;;10.29;100.00;100850.81;12895562;22;20086;-90
2022/10/25 00:21:49;;;;;;;24.60;13.63;;;;;;;9.23;100.00;100690.31;12840148;22;20079;-90
2022/10/25 00:26:52;;;;;;;28.17;12.48;;;;;;;10.23;100.00;100887.59;12860463;22;20086;-89
2022/10/25 00:31:53;;;;;;;37.90;15.50;;;;;;;10.42;100.00;100877.19;12842724;22;20007;-89
2022/10/25 00:36:54;;;;;;;33.53;15.60;;;;;;;10.69;100.00;100969.00;12960042;22;20359;-90
2022/10/25 00:41:56;;;;;;;37.53;16.30;;;;;;;9.27;100.00;100721.69;12918440;22;20003;-90
2022/10/25 00:47:02;;;;;;;35.15;16.20;;;;;;;9.17;100.00;100690.47;12889344;22;20079;-90
2022/10/25 00:52:03;;;;;;;43.08;16.58;;;;;;;9.32;100.00;100720.94;12847843;22;20017;-90
2022/10/25 00:57:20;;;;;;;40.72;20.35;;;;;;;9.09;100.00;100728.28;12836174;22;20470;-89
2022/10/25 01:02:24;;;;;;;38.67;19.38;;;;;;;9.17;100.00;100691.28;12829702;22;20315;-93
2022/10/25 01:07:32;;;;;;;50.88;21.70;;;;;;;10.20;100.00;100869.69;12817477;22;20016;-92
2022/10/25 01:12:42;;;;;;;53.22;23.15;;;;;;;10.79;100.00;100986.72;12777665;22;20050;-92
2022/10/25 01:17:50;;;;;;;45.53;24.92;;;;;;;9.12;100.00;100707.72;12757933;22;20079;-91
2022/10/25 01:22:57;;;;;;;58.50;23.17;;;;;;;10.64;100.00;100889.06;12759072;22;20011;-91
2022/10/25 01:28:31;;;;;;;58.88;25.02;;;;;;;11.40;100.00;100971.03;12815405;22;20016;-91
2022/10/25 01:34:02;;;;;;;53.33;23.52;;;;;;;10.85;100.00;100887.44;12853033;22;20497;-91
2022/10/25 01:39:03;;;;;;;48.45;23.88;;;;;;;11.75;100.00;100961.47;12836677;22;20338;-92
2022/10/25 01:44:19;;;;;;;48.85;23.67;;;;;;;11.44;100.00;100906.00;12868111;22;20434;-91
2022/10/25 01:55:53;;;;;;;43.90;22.58;;;;;;;10.84;100.00;100814.13;12579408;23;20018;-91
2022/10/25 02:01:02;;;;;;;;;;;;;;;12.00;100.00;100974.72;12737936;23;20008;-91
2022/10/25 02:06:24;;;;;;;39.20;22.23;;;;;;;12.07;100.00;100977.25;12802401;22;19961;-92
2022/10/25 02:11:26;;;;;;;42.85;21.65;;;;;;;12.13;100.00;100972.63;12896225;22;20073;-91
2022/10/25 02:16:29;;;;;;;32.92;20.60;;;;;;;10.55;100.00;100739.19;12811251;22;20015;-91
2022/10/25 02:21:31;;;;;;;34.08;19.88;;;;;;;10.77;100.00;100746.56;12774748;22;20394;-91
2022/10/25 02:26:32;;;;;;;36.72;20.38;;;;;;;11.71;100.00;100905.19;12791231;22;20385;-91
2022/10/25 02:31:36;;;;;;;44.80;22.42;;;;;;;11.76;100.00;100932.81;12769385;22;20074;-91
2022/10/25 02:36:39;;;;;;;41.58;20.40;;;;;;;10.47;100.00;100687.34;12782596;22;20008;-91
2022/10/25 02:41:50;;;;;;;;;;;;;;;;;;;;;
2022/10/25 02:47:03;;;;;;;31.58;18.63;;;;;;;11.02;100.00;100788.19;12722353;22;20017;-92
2022/10/25 02:52:04;;;;;;;32.90;18.13;;;;;;;11.32;100.00;100863.97;12669670;22;20028;-92
2022/10/25 02:57:05;;;;;;;33.42;18.80;;;;;;;11.12;100.00;100806.75;12703158;22;20004;-91
2022/10/25 03:02:08;;;;;;;42.28;18.33;;;;;;;11.23;100.00;100826.97;12726784;22;20093;-92
2022/10/25 03:07:09;;;;;;;36.22;20.40;;;;;;;11.04;100.00;100823.75;12716608;22;20119;-92
2022/10/25 03:12:15;;;;;;;41.35;19.40;;;;;;;10.88;100.00;100803.44;12742525;22;20090;-91
2022/10/25 03:17:27;;;;;;;36.30;18.85;;;;;;;10.80;100.00;100801.97;12683181;22;20501;-92
2022/10/25 03:22:37;;;;;;;38.72;18.92;;;;;;;12.27;100.00;101051.97;12679136;22;20012;-91
2022/10/25 03:27:43;;;;;;;36.78;17.92;;;;;;;11.24;100.00;100856.16;12678923;22;20020;-91
2022/10/25 03:32:47;;;;;;;43.05;19.65;;;;;;;11.98;100.00;100992.63;12712382;22;20011;-91
2022/10/25 03:37:51;;;;;;;45.67;19.40;;;;;;;11.25;100.00;100847.66;12692777;22;20043;-91
2022/10/25 03:42:54;;;;;;;39.60;17.05;;;;;;;10.70;100.00;100808.19;12750199;22;20014;-91
2022/10/25 03:47:55;;;;;;;32.58;16.55;;;;;;;11.28;100.00;100902.25;12730868;22;20096;-91
2022/10/25 03:52:58;;;;;;;35.65;17.00;;;;;;;10.77;100.00;100841.06;12769213;22;20083;-91
2022/10/25 03:58:04;;;;;;;35.45;19.05;;;;;;;10.27;100.00;100763.03;12745502;22;20027;-92
2022/10/25 04:03:34;;;;;;;38.23;18.70;;;;;;;10.23;100.00;100767.38;12721584;22;20031;-91
2022/10/25 04:09:03;;;;;;;42.30;18.73;;;;;;;10.29;100.00;100765.50;12758951;22;20028;-91
2022/10/25 04:14:04;;;;;;;45.28;19.25;;;;;;;12.13;100.00;101088.53;12775309;22;20359;-91
2022/10/25 04:19:07;;;;;;;45.97;20.50;;;;;;;11.78;100.00;101046.47;12742823;22;20019;-91
2022/10/25 04:24:11;;;;;;;47.78;21.65;;;;;;;10.59;100.00;100828.44;12759434;22;20011;-91
2022/10/25 04:29:13;;;;;;;41.90;19.38;;;;;;;10.99;100.00;100920.09;12739172;22;20059;-91
2022/10/25 04:34:16;;;;;;;36.30;17.83;;;;;;;10.89;100.00;100912.50;12763569;22;20038;-91
2022/10/25 04:39:19;;;;;;;39.97;18.17;;;;;;;10.72;100.00;100928.25;12737222;22;20011;-91
2022/10/25 04:44:20;;;;;;;40.97;17.80;;;;;;;9.96;100.00;100810.44;12774476;22;20072;-90
2022/10/25 04:49:21;;;;;;;49.65;19.52;;;;;;;10.61;100.00;100941.06;12755524;22;20513;-90
2022/10/25 04:54:22;;;;;;;40.95;16.85;;;;;;;10.09;100.00;100854.94;12735531;22;20011;-90
2022/10/25 04:59:28;;;;;;;44.83;17.08;;;;;;;10.13;100.00;100880.03;12710741;22;20304;-90
2022/10/25 05:04:33;;;;;;;42.42;17.45;;;;;;;9.92;100.00;100861.53;12681182;22;20104;-91
2022/10/25 05:09:34;;;;;;;43.22;18.02;;;;;;;10.57;100.00;100982.00;12774831;22;20082;-90
2022/10/25 05:14:38;;;;;;;45.58;17.92;;;;;;;11.06;100.00;101059.31;12675682;22;20079;-90
2022/10/25 05:19:46;;;;;;;43.03;18.45;;;;;;;9.90;100.00;100870.03;12690588;22;20303;-90
2022/10/25 05:24:47;;;;;;;45.97;19.05;;;;;;;9.88;100.00;100895.03;12821255;22;21613;-90
2022/10/25 05:29:47;;;;;;;55.78;18.95;;;;;;;9.45;100.00;100819.53;12742342;22;20163;-90
2022/10/25 05:34:48;;;;;;;55.97;18.98;;;;;;;10.07;100.00;100919.56;12804313;23;20008;-89
2022/10/25 05:39:49;;;;;;;56.40;20.17;;;;;;;10.33;100.00;100955.75;12764914;22;20363;-90
2022/10/25 05:44:56;;;;;;;43.85;20.20;;;;;;;11.15;100.00;101061.66;12719430;22;20004;-89
2022/10/25 05:49:57;;;;;;;48.45;21.00;;;;;;;10.61;100.00;101024.47;12763239;22;20016;-89
2022/10/25 05:55:23;;;;;;;53.13;21.48;;;;;;;9.62;100.00;100862.69;12709987;22;20463;-91
2022/10/25 06:00:33;;;;;;;42.30;20.02;;;;;;;10.66;100.00;101034.72;12686208;22;20008;-90
2022/10/25 06:05:37;;;;;;;44.00;22.17;;;;;;;9.87;100.00;100958.53;12666318;22;20028;-90
2022/10/25 06:10:57;;;;;;;;;;;;;;;;;;;;;
2022/10/25 06:15:58;;;;;;;50.42;21.30;;;;;;;11.23;100.00;101122.66;12670219;22;20365;-90
2022/10/25 06:21:18;;;;;;;55.45;20.77;;;;;;;9.75;100.00;100876.09;12661806;22;20475;-90
2022/10/25 06:26:30;;;;;;;48.42;20.10;;;;;;;9.58;100.00;100856.84;12627336;23;20379;-91
2022/10/25 06:31:33;;;;;;;47.75;21.27;;;;;;;9.71;100.00;100866.69;12682524;22;20098;-92
2022/10/25 06:42:03;;;;;;;45.50;17.75;;;;;;;10.30;100.00;100940.59;12757242;22;20027;-92
2022/10/25 06:47:34;;;;;;;;;;;;;;;;;;;;;
2022/10/25 06:52:39;;;;;;;43.83;16.73;;;;;;;10.33;100.00;100956.59;12652856;22;20020;-92
2022/10/25 06:57:50;;;;;;;38.83;13.93;;;;;;;10.77;100.00;101041.22;12616039;23;20390;-92
2022/10/25 07:03:01;;;;;;;32.80;14.20;;;;;;;10.45;100.00;101026.13;12678309;22;20024;-93
2022/10/25 07:08:08;;;;;;;38.83;13.73;;;;;;;10.91;100.00;101078.34;12668926;22;20350;-91
2022/10/25 07:13:20;;;;;;;31.95;14.02;;;;;;;11.51;100.00;101192.53;12709474;22;20015;-91
2022/10/25 07:18:24;;;;;;;32.30;13.57;;;;;;;10.90;100.00;101079.47;12696487;22;20099;-92
2022/10/25 07:23:24;;;;;;;30.35;11.77;;;;;;;10.76;100.00;101070.69;12721468;22;20011;-91
2022/10/25 07:28:25;;;;;;;40.33;14.43;;;;;;;12.07;100.00;101255.97;12778668;22;20463;-90
2022/10/25 07:33:26;;;;;;;27.85;12.13;;;;;;;10.45;100.00;100978.53;12672739;23;20025;-92
2022/10/25 07:38:30;;;;;;;32.17;11.88;;;;;;;11.82;100.00;101202.09;12720706;22;20012;-91
2022/10/25 07:43:40;;;;;;;29.25;12.07;;;;;;;10.84;100.00;101045.47;12751759;22;20012;-88
2022/10/25 07:48:53;;;;;;;27.85;11.45;;;;;;;11.66;100.00;101158.84;12781821;22;20051;-90
2022/10/25 07:53:56;;;;;;;23.67;11.43;;;;;;;12.27;100.00;101239.69;12744177;22;20061;-91
2022/10/25 07:59:19;;;;;;;33.75;12.90;;;;;;;11.43;100.00;101100.09;12736074;22;20098;-92
2022/10/25 08:04:20;;;;;;;25.05;10.60;;;;;;;11.71;100.00;101142.38;12839913;22;20020;-90
2022/10/25 08:09:23;;;;;;;24.90;10.05;;;;;;;11.75;100.00;101109.59;12800060;22;20012;-90
2022/10/25 08:14:23;;;;;;;23.70;10.98;;;;;;;12.02;100.00;101151.06;12836556;22;20019;-90
2022/10/25 08:19:24;;;;;;;21.25;9.40;;;;;;;11.93;100.00;101128.63;12735265;22;20015;-91
2022/10/25 08:24:25;;;;;;;23.80;9.38;;;;;;;11.30;100.00;101009.47;12840494;23;20024;-91
2022/10/25 08:29:59;;;;;;;;;;;;;;;;;;;;;
2022/10/25 08:35:00;;;;;;;27.45;9.15;;;;;;;12.07;100.00;101126.28;12754224;22;20004;-91
2022/10/25 08:40:01;;;;;;;28.20;9.82;;;;;;;11.98;100.00;101114.88;12752582;22;20012;-91
2022/10/25 08:46:00;;;;;;;27.00;10.25;;;;;;;11.88;100.00;101076.94;12799201;22;20074;-91
2022/10/25 08:51:10;;;;;;;27.17;10.70;;;;;;;12.24;100.00;101102.19;12712208;22;20020;-91
2022/10/25 08:56:25;;;;;;;21.35;9.05;;;;;;;12.25;100.00;101062.44;12738492;22;20020;-91
2022/10/25 09:01:35;;;;;;;26.95;11.48;;;;;;;12.57;100.00;101111.38;12773324;22;20405;-91
2022/10/25 09:13:36;;;;;;;;;;;;;;;;;;;;;
2022/10/25 09:19:23;;;;;;;21.75;7.20;;;;;;;14.28;100.00;101337.28;12434390;23;20009;-90
2022/10/25 09:24:47;;;;;;;22.95;8.38;;;;;;;13.12;100.00;101179.28;12501434;23;20021;-92
2022/10/25 09:29:54;;;;;;;21.52;7.72;;;;;;;13.98;100.00;101310.22;12652463;22;20012;-90
2022/10/25 09:35:11;;;;;;;21.90;8.98;;;;;;;13.56;100.00;101241.84;12772764;22;20020;-90
2022/10/25 09:40:58;;;;;;;16.38;7.03;;;;;;;12.41;100.00;101073.66;12643643;23;20018;-90
2022/10/25 09:53:13;;;;;;;;;;;;;;;;;;;;;
2022/10/25 10:27:09;;;;;;;10.27;3.80;;;;;;;14.44;100.00;101382.50;12727595;22;1300835;-90
2022/10/25 10:32:32;;;;;;;15.65;3.28;;;;;;;14.44;100.00;101392.75;12693791;22;20062;-90
2022/10/25 10:37:33;;;;;;;12.75;4.78;;;;;;;13.24;100.00;101195.66;12787536;22;20077;-85
2022/10/25 10:43:03;;;;;;;13.45;3.45;;;;;;;14.33;100.00;101348.38;12642539;22;20051;-89
2022/10/25 10:48:24;;;;;;;14.90;3.20;;;;;;;14.90;100.00;101343.97;12674763;23;20031;-86
2022/10/25 10:53:28;;;;;;;14.85;3.60;;;;;;;15.52;100.00;101317.19;12800880;23;20091;-89
2022/10/25 10:58:52;;;;;;;10.77;3.13;;;;;;;14.44;100.00;101155.34;12772197;22;20042;-94
2022/10/25 11:04:02;;;;;;;11.00;3.42;;;;;;;13.47;100.00;101094.91;12775739;22;20046;-92
2022/10/25 11:09:11;;;;;;;9.93;2.50;;;;;;;15.70;100.00;101378.78;12798059;22;20018;-92
2022/10/25 11:14:22;;;;;;;10.05;3.13;;;;;;;16.24;100.00;101414.34;12802153;22;20011;-93
2022/10/25 11:26:43;;;;;;;12.48;3.13;;;;;;;15.83;100.00;101236.66;12704778;22;20077;-91
2022/10/25 11:31:53;;;;;;;15.48;2.90;;;;;;;16.85;100.00;101396.75;12632084;22;20050;-90
2022/10/25 11:37:00;;;;;;;8.55;2.85;;;;;;;15.65;100.00;101260.28;12820527;22;20010;-89
2022/10/25 11:42:27;;;;;;;14.00;3.92;;;;;;;16.21;100.00;101409.38;12756107;22;20003;-88
2022/10/25 11:47:42;;;;;;;6.53;1.73;;;;;;;16.50;100.00;101406.81;12871731;22;20016;-89
2022/10/25 11:53:51;;;;;;;5.43;1.83;;;;;;;16.04;100.00;101364.38;12694266;22;20027;-94
2022/10/25 11:59:33;;;;;;;;;;;;;;;;;;;;;
2022/10/25 12:05:39;;;;;;;8.73;2.47;;;;;;;16.67;100.00;101417.63;12305764;23;20466;-91
2022/10/25 12:10:57;;;;;;;;;;;;;;;;;;;;;
2022/10/25 12:15:58;;;;;;;5.60;1.85;;;;;;;16.49;100.00;101209.75;12828330;22;20036;-89
2022/10/25 12:20:59;;;;;;;6.20;2.10;;;;;;;16.46;100.00;101227.03;12801901;23;20055;-92
2022/10/25 12:26:03;;;;;;;7.90;2.38;;;;;;;16.35;100.00;101223.47;12840030;23;20016;-90
2022/10/25 12:31:22;;;;;;;5.35;1.52;;;;;;;15.63;100.00;101225.59;12851613;23;20020;-88
2022/10/25 12:36:35;;;;;;;7.28;1.90;;;;;;;16.58;100.00;101344.25;12876888;22;20008;-87
2022/10/25 12:41:36;;;;;;;6.93;1.63;;;;;;;17.26;100.00;101376.22;12851261;22;20008;-88
2022/10/25 12:46:43;;;;;;;6.72;1.77;;;;;;;16.50;100.00;101340.13;12849796;22;20430;-86
2022/10/25 12:51:59;;;;;;;4.28;1.73;;;;;;;15.72;100.00;101359.94;12878494;23;20000;-86
2022/10/25 12:57:19;;;;;;;8.05;2.67;;;;;;;15.44;100.00;101406.53;12885900;22;20059;-89
2022/10/25 13:02:53;;;;;;;6.78;2.42;;;;;;;16.60;100.00;101444.88;12901184;22;20004;-88
2022/10/25 13:07:56;;;;;;;7.47;1.60;;;;;;;17.00;100.00;101309.63;12925977;22;20012;-91
2022/10/25 13:13:12;;;;;;;7.28;1.70;;;;;;;17.91;100.00;101301.69;12850574;22;20000;-87
2022/10/25 13:18:24;;;;;;;8.67;1.80;;;;;;;18.18;100.00;101438.81;12900499;22;20431;-89
2022/10/25 13:23:45;;;;;;;5.35;2.10;;;;;;;16.72;100.00;101253.56;12962969;22;20089;-88
2022/10/25 13:28:47;;;;;;;10.13;2.40;;;;;;;17.95;100.00;101332.59;12848707;22;20047;-87
2022/10/25 13:34:12;;;;;;;9.68;2.33;;;;;;;18.15;100.00;101431.88;12849658;22;20058;-87
2022/10/25 13:39:38;;;;;;;10.00;2.10;;;;;;;18.59;100.00;101299.84;12899769;22;20065;-88
2022/10/25 13:44:53;;;;;;;5.90;2.22;;;;;;;20.40;100.00;101438.44;12904917;22;20007;-83
2022/10/25 13:49:53;;;;;;;9.35;1.90;;;;;;;18.92;100.00;101270.13;12876068;22;20016;-88
2022/10/25 13:54:55;;;;;;;5.32;1.52;;;;;;;19.78;100.00;101271.00;12878768;22;20015;-89
2022/10/25 14:00:00;;;;;;;6.32;1.52;;;;;;;20.32;100.00;101445.59;12876675;22;20006;-88
2022/10/25 14:05:00;;;;;;;5.35;1.40;;;;;;;18.99;100.00;101294.84;12876699;22;20346;-88
2022/10/25 14:10:01;;;;;;;6.28;1.85;;;;;;;19.80;100.00;101364.56;12875306;22;20016;-88
2022/10/25 14:15:11;;;;;;;5.32;1.52;;;;;;;18.82;100.00;101267.47;12866433;22;20011;-91
2022/10/25 14:20:20;;;;;;;6.57;1.88;;;;;;;18.53;100.00;101458.00;12875805;22;20088;-89
2022/10/25 14:25:35;;;;;;;6.93;1.98;;;;;;;16.10;100.00;101291.03;12912144;22;20027;-89
2022/10/25 14:30:42;;;;;;;6.32;2.45;;;;;;;15.93;100.00;101344.13;12871896;22;20024;-91
2022/10/25 14:35:50;;;;;;;11.00;2.10;;;;;;;15.42;100.00;101275.56;12891997;22;20055;-90
2022/10/25 14:41:01;;;;;;;6.40;1.95;;;;;;;16.19;100.00;101297.69;12866417;22;20010;-89
2022/10/25 14:46:04;;;;;;;9.43;2.47;;;;;;;16.97;100.00;101363.03;12850914;23;20079;-91
2022/10/25 14:51:27;;;;;;;9.80;2.92;;;;;;;15.22;100.00;101236.72;12961614;22;20016;-89
2022/10/25 14:56:33;;;;;;;15.20;6.20;;;;;;;14.03;100.00;101182.06;12852959;22;20424;-89
2022/10/25 15:01:52;;;;;;;16.33;7.10;;;;;;;14.10;100.00;101280.41;12893169;22;20003;-92
2022/10/25 15:06:53;;;;;;;7.75;2.95;;;;;;;13.48;100.00;101207.22;12921195;22;20028;-90
2022/10/25 15:12:14;;;;;;;5.93;3.35;;;;;;;14.63;100.00;101377.34;12888799;22;20551;-89
2022/10/25 15:17:23;;;;;;;9.95;3.67;;;;;;;13.65;100.00;101223.66;12942855;22;20435;-89
2022/10/25 15:22:36;;;;;;;9.60;3.00;;;;;;;15.13;100.00;101461.03;12916855;22;20019;-88
2022/10/25 15:27:41;;;;;;;10.20;3.63;;;;;;;14.41;100.00;101405.22;12971796;22;20020;-88
2022/10/25 15:32:42;;;;;;;12.20;4.07;;;;;;;13.31;100.00;101242.47;12868586;22;20063;-88
2022/10/25 15:37:42;;;;;;;10.57;4.00;;;;;;;13.35;100.00;101271.25;12838806;22;20026;-89
2022/10/25 15:42:43;;;;;;;7.20;3.58;;;;;;;13.73;100.00;101352.38;12916910;22;20004;-88
2022/10/25 15:47:43;;;;;;;11.38;4.00;;;;;;;13.52;100.00;101360.50;12917033;22;20054;-89
2022/10/25 15:52:44;;;;;;;9.35;3.63;;;;;;;12.90;100.00;101286.28;12916029;22;20334;-88
2022/10/25 15:57:45;;;;;;;9.85;4.25;;;;;;;12.98;100.00;101330.06;12891205;22;20004;-88
2022/10/25 16:02:46;;;;;;;10.48;4.15;;;;;;;12.60;100.00;101304.16;12901509;22;20313;-88
2022/10/25 16:07:46;;;;;;;8.90;4.55;;;;;;;11.82;100.00;101204.84;12917113;22;21466;-88
2022/10/25 16:12:49;;;;;;;12.00;4.13;;;;;;;12.15;100.00;101280.38;12884323;22;20031;-87
2022/10/25 16:17:49;;;;;;;9.63;4.03;;;;;;;11.37;100.00;101196.72;12903458;22;20130;-87
2022/10/25 16:22:50;;;;;;;13.27;4.32;;;;;;;12.28;100.00;101401.50;12914866;22;20032;-88
2022/10/25 16:27:51;;;;;;;18.05;6.20;;;;;;;11.51;100.00;101303.69;12891014;22;20350;-88
2022/10/25 16:32:51;;;;;;;10.25;4.88;;;;;;;11.69;100.00;101387.25;12915426;22;20434;-85
2022/10/25 16:37:52;;;;;;;8.88;4.75;;;;;;;12.10;100.00;101449.50;12893555;22;20011;-83
2022/10/25 16:42:53;;;;;;;14.50;4.72;;;;;;;12.04;100.00;101471.75;12930661;22;20050;-86
2022/10/25 16:47:55;;;;;;;13.20;4.60;;;;;;;12.19;100.00;101516.19;12905737;22;20080;-83
2022/10/25 16:53:00;;;;;;;14.77;5.78;;;;;;;10.42;100.00;101230.34;12801279;22;20022;-90
2022/10/25 16:58:05;;;;;;;9.70;5.25;;;;;;;10.34;100.00;101293.19;12754644;22;20074;-95
2022/10/25 17:03:07;;;;;;;22.15;5.55;;;;;;;10.95;100.00;101409.28;12790337;22;20021;-93
2022/10/25 17:08:13;;;;;;;22.20;6.05;;;;;;;9.94;100.00;101227.91;12633055;23;20029;-95
2022/10/25 17:13:26;;;;;;;12.40;5.47;;;;;;;10.01;100.00;101242.38;12746733;22;20399;-87
2022/10/25 17:19:10;;;;;;;10.43;6.18;;;;;;;11.62;100.00;101510.69;12748178;22;20016;-93
2022/10/25 17:24:15;;;;;;;15.13;7.43;;;;;;;10.54;100.00;101373.44;12825932;22;20027;-93
2022/10/25 17:29:17;;;;;;;;;;;;;;;11.58;100.00;101520.53;12685333;22;21193;-88
2022/10/25 17:34:21;;;;;;;14.68;7.15;;;;;;;10.58;100.00;101371.88;12737779;22;19933;-87
2022/10/25 17:39:22;;;;;;;12.70;6.78;;;;;;;10.55;100.00;101333.00;12719592;22;20019;-94
2022/10/25 17:44:26;;;;;;;12.80;7.10;;;;;;;10.61;100.00;101385.16;12747448;22;20032;-91
2022/10/25 17:49:40;;;;;;;13.20;7.97;;;;;;;10.21;100.00;101317.09;12844849;22;20020;-91
2022/10/25 17:54:46;;;;;;;11.95;7.90;;;;;;;10.72;100.00;101388.97;12823697;23;20008;-93
2022/10/25 17:59:47;;;;;;;17.88;8.50;;;;;;;10.68;100.00;101366.56;12903858;22;20402;-88
2022/10/25 18:04:48;;;;;;;14.38;8.40;;;;;;;10.97;100.00;101457.53;12819031;22;20000;-89
2022/10/25 18:09:49;;;;;;;14.65;8.65;;;;;;;10.66;100.00;101385.25;12840552;23;20446;-87
2022/10/25 18:14:57;;;;;;;17.70;8.20;;;;;;;10.08;100.00;101320.09;12726434;22;20004;-87
2022/10/25 18:20:01;;;;;;;14.52;8.80;;;;;;;10.84;100.00;101419.25;12760645;22;20082;-87
2022/10/25 18:25:02;;;;;;;19.02;9.63;;;;;;;10.10;100.00;101361.97;12738674;22;20019;-87
2022/10/25 18:30:06;;;;;;;20.83;11.35;;;;;;;10.98;100.00;101517.09;12703398;22;20026;-87
2022/10/25 18:35:14;;;;;;;19.77;11.48;;;;;;;9.16;100.00;101210.72;12717949;22;20003;-88
2022/10/25 18:40:24;;;;;;;23.35;12.10;;;;;;;11.11;100.00;101541.63;12738358;22;20016;-88
2022/10/25 18:45:44;;;;;;;23.13;11.45;;;;;;;9.98;100.00;101377.63;12761798;22;20013;-88
2022/10/25 18:50:51;;;;;;;22.50;11.57;;;;;;;9.76;100.00;101375.44;12663226;22;20020;-88
2022/10/25 18:56:02;;;;;;;26.88;12.80;;;;;;;9.95;100.00;101394.59;12818517;22;20012;-89
2022/10/25 19:01:31;;;;;;;31.02;12.23;;;;;;;10.76;100.00;101511.34;12746569;22;20088;-87
2022/10/25 19:07:12;;;;;;;25.52;11.25;;;;;;;10.08;100.00;101366.84;12629243;23;20022;-88
2022/10/25 19:13:03;;;;;;;20.80;11.23;;;;;;;10.03;100.00;101353.81;12523959;23;20045;-90
2022/10/25 19:18:27;;;;;;;22.23;10.45;;;;;;;9.95;100.00;101389.94;12497088;23;20014;-87
2022/10/25 19:23:44;;;;;;;;;;;;;;;;;;;;;
2022/10/25 19:28:56;;;;;;;27.48;11.57;;;;;;;11.00;100.00;101578.28;12545511;23;20024;-87
2022/10/25 19:34:05;;;;;;;19.58;10.07;;;;;;;10.95;100.00;101534.06;12663589;23;20073;-88
2022/10/25 19:39:09;;;;;;;26.83;9.85;;;;;;;9.69;100.00;101369.22;12686360;23;20085;-88
2022/10/25 19:44:35;;;;;;;22.85;10.05;;;;;;;10.21;100.00;101443.69;12668965;23;20041;-88
2022/10/25 19:50:11;;;;;;;18.63;9.57;;;;;;;8.89;100.00;101288.00;12613212;23;20099;-88
2022/10/25 19:55:40;;;;;;;;;;;;;;;;;;;;;
2022/10/25 20:01:07;;;;;;;23.30;10.70;;;;;;;9.16;100.00;101335.16;12672281;23;20013;-88
2022/10/25 20:06:14;;;;;;;25.48;11.27;;;;;;;9.49;100.00;101433.59;12826124;22;20019;-89
2022/10/25 20:11:35;;;;;;;22.67;11.30;;;;;;;10.22;100.00;101530.66;12778366;22;20030;-88
2022/10/25 20:17:18;;;;;;;;;;;;;;;;;;;;;
2022/10/25 20:22:48;;;;;;;24.10;10.88;;;;;;;8.36;100.00;101280.44;12555714;23;20009;-88
2022/10/25 20:28:29;;;;;;;;;;;;;;;;;;;;;
2022/10/25 20:33:40;;;;;;;;;;;;;;;;;;;;;
2022/10/25 20:39:04;;;;;;;29.23;12.35;;;;;;;8.08;100.00;101276.31;12787348;22;20015;-88
2022/10/25 20:44:09;;;;;;;26.33;11.82;;;;;;;9.05;100.00;101463.13;12750704;22;20016;-86
2022/10/25 20:49:15;;;;;;;26.42;13.25;;;;;;;7.80;100.00;101274.09;12765336;22;20403;-87
2022/10/25 20:54:32;;;;;;;22.55;11.77;;;;;;;8.89;100.00;101470.06;12742043;22;19999;-87
2022/10/25 20:59:44;;;;;;;23.02;11.75;;;;;;;8.67;100.00;101460.59;12830702;22;20192;-87
2022/10/25 21:04:45;;;;;;;25.52;11.05;;;;;;;7.58;100.00;101295.56;12821836;22;20000;-87
2022/10/25 21:09:48;;;;;;;22.45;10.77;;;;;;;8.12;100.00;101387.22;12800514;22;20446;-87
2022/10/25 21:15:01;;;;;;;25.35;12.82;;;;;;;9.01;100.00;101518.72;12759428;22;20029;-87
2022/10/25 21:20:04;;;;;;;31.77;13.75;;;;;;;8.13;100.00;101366.97;12785795;22;20377;-88
2022/10/25 21:25:08;;;;;;;25.92;12.48;;;;;;;8.58;100.00;101451.81;12854139;22;20019;-87
2022/10/25 21:30:31;;;;;;;29.33;12.43;;;;;;;9.18;100.00;101535.47;12888078;22;20087;-89
2022/10/25 21:35:52;;;;;;;26.42;12.88;;;;;;;8.84;100.00;101489.13;12870079;22;20030;-92
2022/10/25 21:40:53;;;;;;;30.02;12.98;;;;;;;7.88;100.00;101376.06;12908066;22;20004;-94
2022/10/25 21:46:16;;;;;;;29.80;13.68;;;;;;;7.01;100.00;101244.41;12846993;22;20015;-95
2022/10/25 21:51:31;;;;;;;23.42;12.65;;;;;;;6.80;100.00;101209.19;12853251;22;20089;-95
2022/10/25 21:56:41;;;;;;;28.58;12.90;;;;;;;7.75;100.00;101353.41;12705554;22;20004;-94
2022/10/25 22:01:47;;;;;;;25.67;12.48;;;;;;;7.20;100.00;101318.44;12776424;22;20065;-95
2022/10/25 22:06:49;;;;;;;29.83;14.25;;;;;;;7.38;100.00;101331.34;12821598;22;20004;-95
2022/10/25 22:11:54;;;;;;;29.30;14.25;;;;;;;7.17;100.00;101313.38;12813174;22;20015;-95
2022/10/25 22:17:17;;;;;;;29.10;14.27;;;;;;;7.31;100.00;101341.53;12848312;22;19996;-94
2022/10/25 22:22:18;;;;;;;31.60;14.27;;;;;;;8.83;100.00;101574.50;12776035;22;20107;-94
2022/10/25 22:27:18;;;;;;;29.80;15.48;;;;;;;7.70;100.00;101403.41;12881411;22;20050;-95
2022/10/25 22:32:19;;;;;;;28.13;14.88;;;;;;;7.88;100.00;101430.91;12914383;22;20015;-93
2022/10/25 22:37:22;;;;;;;35.38;15.32;;;;;;;7.53;100.00;101347.47;12876314;22;20000;-94
2022/10/25 22:42:24;;;;;;;26.95;14.75;;;;;;;8.25;100.00;101516.03;12914262;22;20441;-94
2022/10/25 22:47:24;;;;;;;35.17;17.45;;;;;;;7.42;100.00;101355.34;12914714;22;20046;-93
2022/10/25 22:52:25;;;;;;;37.08;17.35;;;;;;;6.87;100.00;101300.31;12913077;22;20008;-93
2022/10/25 22:57:27;;;;;;;32.50;17.23;;;;;;;6.79;100.00;101287.72;12916520;22;20441;-93
2022/10/25 23:02:30;;;;;;;38.00;18.52;;;;;;;7.86;100.00;101465.91;12918157;22;20422;-94
2022/10/25 23:07:31;;;;;;;31.35;16.90;;;;;;;6.88;100.00;101271.88;12943516;22;20016;-94
2022/10/25 23:12:31;;;;;;;39.30;16.55;;;;;;;6.93;100.00;101283.00;12903528;22;20442;-93
2022/10/25 23:17:34;;;;;;;42.92;19.10;;;;;;;7.08;100.00;101299.94;12917344;22;20019;-89
2022/10/25 23:22:34;;;;;;;37.83;17.35;;;;;;;8.51;100.00;101555.31;12941766;22;20012;-89
2022/10/25 23:27:35;;;;;;;32.72;18.25;;;;;;;7.65;100.00;101444.34;12890751;22;20019;-89
2022/10/25 23:32:36;;;;;;;37.08;17.38;;;;;;;8.58;100.00;101544.28;12904563;22;20379;-89
2022/10/25 23:37:36;;;;;;;37.53;19.73;;;;;;;7.19;100.00;101334.03;12761662;22;20004;-89
2022/10/25 23:42:37;;;;;;;38.75;18.35;;;;;;;7.38;100.00;101370.56;12862928;22;20050;-89
2022/10/25 23:47:41;;;;;;;41.65;19.70;;;;;;;7.75;100.00;101414.56;12892245;22;20019;-89
2022/10/25 23:52:42;;;;;;;31.73;18.95;;;;;;;8.68;100.00;101578.41;12889126;22;20004;-89
2022/10/25 23:57:42;;;;;;;34.45;18.67;;;;;;;8.25;100.00;101485.88;12902986;22;20008;-89
